Time;durP1;ratioP1;P1;durP2;ratioP2;P2;SDS_P1;SDS_P2;PMS_P1;PMS_P2;Temp;Humidity;BMP_temperature;BMP_pressure;BME280_temperature;BME280_humidity;BME280_pressure;Samples;Min_cycle;Max_cycle;Signal;HPM_P1;HPM_P2
2023/08/16 00:01:22;;;;;;;9.73;5.28;;;21.00;95.70;;;;;;5002992;28;20029;-80
2023/08/16 00:03:47;;;;;;;6.80;4.78;;;21.00;95.80;;;;;;4991992;28;20030;-81
2023/08/16 00:06:13;;;;;;;11.43;5.60;;;21.00;95.00;;;;;;4985809;28;20045;-80
2023/08/16 00:08:39;;;;;;;7.38;4.50;;;20.90;95.70;;;;;;5001358;28;20037;-80
2023/08/16 00:11:05;;;;;;;11.27;5.70;;;20.90;95.20;;;;;;5019543;28;20103;-80
2023/08/16 00:13:32;;;;;;;9.85;6.38;;;20.80;95.90;;;;;;4985919;28;20026;-80
2023/08/16 00:15:57;;;;;;;8.93;4.85;;;20.80;95.30;;;;;;5021607;28;20083;-80
2023/08/16 00:18:23;;;;;;;8.18;5.85;;;20.80;95.60;;;;;;5021646;28;20034;-80
2023/08/16 00:20:48;;;;;;;9.98;5.35;;;20.80;96.00;;;;;;4994162;28;20068;-80
2023/08/16 00:23:14;;;;;;;8.65;5.78;;;20.70;95.90;;;;;;5022574;28;20060;-81
2023/08/16 00:25:40;;;;;;;10.07;6.22;;;20.70;96.20;;;;;;5003238;28;20438;-80
2023/08/16 00:28:05;;;;;;;14.32;6.50;;;20.70;96.60;;;;;;5018598;28;20033;-82
2023/08/16 00:30:31;;;;;;;10.90;5.82;;;20.60;96.60;;;;;;5004012;28;20021;-80
2023/08/16 00:32:56;;;;;;;10.02;6.10;;;20.60;97.10;;;;;;5017506;28;20041;-80
2023/08/16 00:35:22;;;;;;;8.43;6.45;;;20.50;96.90;;;;;;4994920;28;20501;-80
2023/08/16 00:37:48;;;;;;;9.88;6.03;;;20.60;97.40;;;;;;5005981;28;20499;-80
2023/08/16 00:40:14;;;;;;;8.75;5.60;;;20.50;96.70;;;;;;5003924;28;20076;-81
2023/08/16 00:42:40;;;;;;;9.75;6.43;;;20.50;97.00;;;;;;4992269;28;20044;-80
2023/08/16 00:45:06;;;;;;;8.73;6.45;;;20.40;96.40;;;;;;4983725;28;20397;-80
2023/08/16 00:47:32;;;;;;;10.00;6.93;;;20.40;97.30;;;;;;5001481;28;20567;-80
2023/08/16 00:49:57;;;;;;;10.32;7.07;;;20.30;97.50;;;;;;4993437;28;20157;-80
2023/08/16 00:52:23;;;;;;;14.25;6.50;;;20.30;97.30;;;;;;4991386;28;20406;-80
2023/08/16 00:54:48;;;;;;;12.40;7.70;;;20.20;98.30;;;;;;4993101;28;20033;-81
2023/08/16 00:57:15;;;;;;;10.35;7.07;;;20.20;97.50;;;;;;5022657;28;20057;-81
2023/08/16 00:59:41;;;;;;;9.63;6.75;;;20.20;98.30;;;;;;4993158;28;20037;-81
2023/08/16 01:02:06;;;;;;;11.52;6.90;;;20.20;97.50;;;;;;4986973;28;20532;-82
2023/08/16 01:04:32;;;;;;;11.05;8.05;;;20.20;98.00;;;;;;5019479;28;20402;-80
2023/08/16 01:06:57;;;;;;;12.43;7.03;;;20.10;98.60;;;;;;5019644;28;20022;-80
2023/08/16 01:09:24;;;;;;;10.40;7.18;;;20.10;98.00;;;;;;4990686;28;20104;-80
2023/08/16 01:12:13;;;;;;;10.30;7.68;;;20.10;97.80;;;;;;5016705;28;20144;-80
2023/08/16 01:14:58;;;;;;;9.20;6.93;;;20.00;98.30;;;;;;5015863;28;20730;-82
2023/08/16 01:17:24;;;;;;;10.73;6.93;;;19.90;97.40;;;;;;4988415;28;20034;-81
2023/08/16 01:19:55;;;;;;;11.15;6.22;;;19.80;97.60;;;;;;5002058;28;20060;-80
2023/08/16 01:22:26;;;;;;;13.88;6.65;;;19.80;99.10;;;;;;5019325;28;20053;-80
2023/08/16 01:25:08;;;;;;;13.85;6.80;;;19.80;98.20;;;;;;5005648;28;20069;-80
2023/08/16 01:27:33;;;;;;;10.30;5.75;;;19.80;97.80;;;;;;5021206;28;20076;-80
2023/08/16 01:29:59;;;;;;;12.82;7.20;;;19.70;98.20;;;;;;4989860;28;20029;-81
2023/08/16 01:32:24;;;;;;;13.35;6.70;;;19.60;99.90;;;;;;5003511;28;20049;-80
2023/08/16 01:34:50;;;;;;;12.00;7.10;;;19.50;99.90;;;;;;4998688;28;20033;-81
2023/08/16 01:37:15;;;;;;;9.23;6.13;;;19.50;99.80;;;;;;5017113;28;20042;-80
2023/08/16 01:39:41;;;;;;;9.13;7.30;;;19.50;99.90;;;;;;4990715;28;20035;-81
2023/08/16 01:42:06;;;;;;;12.82;7.40;;;19.40;99.90;;;;;;5007092;28;20038;-80
2023/08/16 01:44:32;;;;;;;9.88;6.57;;;19.40;99.90;;;;;;5016155;28;20033;-80
2023/08/16 01:46:58;;;;;;;11.57;6.70;;;19.30;99.90;;;;;;4989073;28;20440;-80
2023/08/16 01:49:23;;;;;;;12.82;7.20;;;19.20;99.90;;;;;;5017787;28;20041;-80
2023/08/16 01:51:49;;;;;;;12.82;7.88;;;19.20;99.90;;;;;;5002651;28;20775;-81
2023/08/16 01:54:14;;;;;;;10.65;7.70;;;19.20;99.90;;;;;;4985017;28;20034;-80
2023/08/16 01:56:40;;;;;;;12.00;7.25;;;19.10;99.90;;;;;;5002811;28;20053;-80
2023/08/16 01:59:05;;;;;;;12.25;7.53;;;19.10;99.90;;;;;;5017683;28;20110;-81
2023/08/16 02:01:31;;;;;;;10.48;7.97;;;19.00;99.90;;;;;;5001849;28;20029;-81
2023/08/16 02:03:57;;;;;;;11.15;7.22;;;19.00;99.90;;;;;;4990345;28;20022;-80
2023/08/16 02:06:22;;;;;;;9.38;7.43;;;18.90;99.90;;;;;;5014744;28;20049;-80
2023/08/16 02:08:48;;;;;;;10.55;6.95;;;18.90;99.90;;;;;;5017584;28;20117;-80
2023/08/16 02:11:13;;;;;;;9.68;8.18;;;18.80;99.90;;;;;;4983242;28;20033;-82
2023/08/16 02:13:39;;;;;;;9.60;7.57;;;18.90;99.90;;;;;;5003670;28;20038;-80
2023/08/16 02:16:04;;;;;;;14.52;7.97;;;18.90;99.90;;;;;;4990402;28;20061;-80
2023/08/16 02:18:30;;;;;;;12.13;8.05;;;18.80;99.90;;;;;;4990195;28;20511;-78
2023/08/16 02:20:56;;;;;;;12.23;7.68;;;18.80;99.90;;;;;;5004309;28;20037;-78
2023/08/16 02:23:22;;;;;;;12.50;8.05;;;18.70;99.90;;;;;;5018071;28;20065;-79
2023/08/16 02:25:48;;;;;;;16.10;8.45;;;18.70;99.90;;;;;;4981515;28;20058;-78
2023/08/16 02:28:13;;;;;;;14.70;9.02;;;18.60;99.90;;;;;;4981741;28;20029;-80
2023/08/16 02:30:39;;;;;;;12.45;8.45;;;18.60;99.90;;;;;;4994229;28;21183;-78
2023/08/16 02:33:04;;;;;;;14.90;8.30;;;18.60;99.90;;;;;;4985874;28;20112;-79
2023/08/16 02:35:31;;;;;;;13.48;8.00;;;18.50;99.90;;;;;;5016516;28;20545;-79
2023/08/16 02:37:56;;;;;;;13.20;8.60;;;18.50;99.90;;;;;;5002825;28;20045;-79
2023/08/16 02:40:22;;;;;;;10.70;8.02;;;18.50;99.90;;;;;;5012885;28;20083;-79
2023/08/16 02:42:49;;;;;;;10.93;7.72;;;18.30;99.90;;;;;;5014104;28;20040;-80
2023/08/16 02:45:15;;;;;;;14.85;7.95;;;18.50;99.90;;;;;;5016664;28;20060;-79
2023/08/16 02:47:42;;;;;;;9.77;7.95;;;18.40;99.90;;;;;;4986674;28;20065;-80
2023/08/16 02:50:08;;;;;;;8.40;6.85;;;18.40;99.90;;;;;;5003974;28;20234;-79
2023/08/16 02:52:33;;;;;;;12.80;8.02;;;18.40;99.90;;;;;;4989659;28;20898;-79
2023/08/16 02:54:59;;;;;;;9.45;7.85;;;18.40;99.90;;;;;;4995432;28;20129;-79
2023/08/16 02:57:24;;;;;;;11.77;8.23;;;18.30;99.90;;;;;;5018470;28;20037;-78
2023/08/16 02:59:51;;;;;;;12.02;8.48;;;18.20;99.90;;;;;;4981465;28;20120;-79
2023/08/16 03:02:17;;;;;;;10.95;8.00;;;18.20;99.90;;;;;;5015511;28;20029;-79
2023/08/16 03:04:42;;;;;;;12.32;8.73;;;18.10;99.90;;;;;;5000146;28;20034;-79
2023/08/16 03:07:08;;;;;;;13.52;9.32;;;18.20;99.90;;;;;;5003667;28;20029;-80
2023/08/16 03:09:34;;;;;;;17.52;8.98;;;18.10;99.90;;;;;;5016682;28;20064;-79
2023/08/16 03:12:00;;;;;;;9.45;8.35;;;18.00;99.90;;;;;;5002751;28;20071;-79
2023/08/16 03:14:25;;;;;;;10.20;8.05;;;18.00;99.90;;;;;;5005610;28;20431;-78
2023/08/16 03:16:51;;;;;;;11.43;9.25;;;18.00;99.90;;;;;;4981440;28;20032;-78
2023/08/16 03:19:16;;;;;;;11.70;8.32;;;18.10;99.90;;;;;;5018526;28;20242;-79
2023/08/16 03:21:42;;;;;;;11.20;8.50;;;18.10;99.90;;;;;;5002053;28;20116;-78
2023/08/16 03:24:07;;;;;;;13.02;10.20;;;18.00;99.90;;;;;;4990094;28;20109;-79
2023/08/16 03:26:33;;;;;;;12.57;8.88;;;17.90;99.90;;;;;;5001404;28;20113;-79
2023/08/16 03:28:59;;;;;;;12.85;9.13;;;17.90;99.90;;;;;;5015044;28;20029;-79
2023/08/16 03:31:24;;;;;;;12.23;9.75;;;17.80;99.90;;;;;;5002520;28;20036;-79
2023/08/16 03:33:50;;;;;;;12.52;9.32;;;17.90;99.90;;;;;;5003805;28;20354;-79
2023/08/16 03:36:15;;;;;;;19.23;10.40;;;17.80;99.90;;;;;;5001616;28;20038;-80
2023/08/16 03:38:41;;;;;;;12.48;9.65;;;17.80;99.90;;;;;;5018893;28;20049;-79
2023/08/16 03:41:07;;;;;;;13.95;10.80;;;17.90;99.90;;;;;;4989938;28;20034;-79
2023/08/16 03:43:36;;;;;;;17.45;10.63;;;18.00;99.90;;;;;;4995101;28;20030;-79
2023/08/16 03:46:05;;;;;;;15.40;10.50;;;18.00;99.90;;;;;;4993704;28;20058;-78
2023/08/16 03:48:31;;;;;;;18.15;10.35;;;18.00;99.90;;;;;;4991173;28;20034;-79
2023/08/16 03:50:57;;;;;;;11.00;8.57;;;17.90;99.90;;;;;;5002650;28;20041;-79
2023/08/16 03:53:22;;;;;;;10.68;9.18;;;18.00;99.90;;;;;;5005758;28;20030;-79
2023/08/16 03:55:48;;;;;;;16.25;10.50;;;18.10;99.90;;;;;;5002581;28;20057;-79
2023/08/16 03:58:13;;;;;;;10.73;8.27;;;18.00;99.90;;;;;;4994013;28;20037;-79
2023/08/16 04:00:40;;;;;;;13.77;10.52;;;18.10;99.90;;;;;;4993735;28;20037;-79
2023/08/16 04:03:06;;;;;;;14.23;9.32;;;18.10;99.90;;;;;;5004729;28;20034;-79
2023/08/16 04:05:32;;;;;;;16.75;10.18;;;18.10;99.90;;;;;;5002741;28;20120;-79
2023/08/16 04:07:58;;;;;;;14.38;9.52;;;18.20;99.90;;;;;;5018272;28;20038;-79
2023/08/16 04:10:23;;;;;;;12.50;10.00;;;18.10;99.90;;;;;;5002809;28;20353;-79
2023/08/16 04:12:49;;;;;;;12.85;10.23;;;18.30;99.90;;;;;;4994653;28;20037;-79
2023/08/16 04:15:14;;;;;;;11.95;9.57;;;18.20;99.90;;;;;;5007777;28;20038;-79
2023/08/16 04:17:40;;;;;;;11.90;9.38;;;18.10;99.90;;;;;;4993044;28;20037;-78
2023/08/16 04:20:07;;;;;;;16.92;10.40;;;18.10;99.90;;;;;;5001461;28;20037;-79
2023/08/16 04:22:33;;;;;;;13.05;8.77;;;18.20;99.90;;;;;;5003244;28;21430;-79
2023/08/16 04:24:59;;;;;;;6.40;5.78;;;18.20;99.90;;;;;;5019463;28;20037;-79
2023/08/16 04:27:25;;;;;;;13.18;10.10;;;18.20;99.90;;;;;;5003180;28;20038;-78
2023/08/16 04:29:51;;;;;;;15.00;10.10;;;18.30;99.90;;;;;;5007850;28;20033;-79
2023/08/16 04:32:17;;;;;;;12.23;9.90;;;18.20;99.90;;;;;;5006455;28;20038;-79
2023/08/16 04:34:42;;;;;;;15.70;9.50;;;18.20;99.90;;;;;;4991064;28;20469;-78
2023/08/16 04:37:08;;;;;;;16.63;10.40;;;18.20;99.90;;;;;;4998814;28;20033;-78
2023/08/16 04:39:34;;;;;;;15.30;11.05;;;18.30;99.90;;;;;;5016960;28;20022;-80
2023/08/16 04:41:59;;;;;;;15.88;11.05;;;18.30;99.90;;;;;;4984324;28;20200;-79
2023/08/16 04:44:25;;;;;;;13.50;9.75;;;18.30;99.90;;;;;;5005046;28;20116;-79
2023/08/16 04:46:50;;;;;;;16.05;11.07;;;18.30;99.90;;;;;;5008755;28;20112;-79
2023/08/16 04:49:16;;;;;;;12.30;10.63;;;18.30;99.90;;;;;;4991208;28;20044;-78
2023/08/16 04:51:41;;;;;;;13.40;11.30;;;18.40;99.90;;;;;;4990558;28;20242;-78
2023/08/16 04:54:07;;;;;;;20.80;12.80;;;18.30;99.90;;;;;;5019272;28;20030;-79
2023/08/16 04:56:33;;;;;;;13.00;9.82;;;18.30;99.90;;;;;;5002047;28;20041;-79
2023/08/16 04:58:58;;;;;;;13.13;9.23;;;18.40;99.90;;;;;;5002131;28;20180;-79
2023/08/16 05:01:24;;;;;;;12.10;7.30;;;18.40;99.90;;;;;;4999961;28;20330;-78
2023/08/16 05:03:50;;;;;;;13.13;9.48;;;18.50;99.90;;;;;;4993339;28;20045;-79
2023/08/16 05:06:16;;;;;;;12.40;8.50;;;18.50;99.90;;;;;;5027043;28;20795;-78
2023/08/16 05:08:41;;;;;;;10.70;8.70;;;18.60;99.90;;;;;;5018961;28;20072;-79
2023/08/16 05:11:07;;;;;;;8.05;6.07;;;18.60;99.90;;;;;;5019392;28;20132;-79
2023/08/16 05:13:32;;;;;;;13.77;8.98;;;18.80;99.90;;;;;;4986914;28;20057;-79
2023/08/16 05:15:58;;;;;;;42.80;10.18;;;18.80;99.90;;;;;;5018559;28;20057;-81
2023/08/16 05:18:24;;;;;;;36.40;12.40;;;18.80;99.90;;;;;;4987248;28;20053;-81
2023/08/16 05:20:49;;;;;;;33.03;12.90;;;18.20;99.90;;;;;;4985747;28;20053;-80
2023/08/16 05:23:15;;;;;;;23.23;14.02;;;17.90;99.90;;;;;;5000315;28;20038;-80
2023/08/16 05:25:40;;;;;;;76.25;15.88;;;18.00;99.90;;;;;;4991482;28;20037;-83
2023/08/16 05:28:06;;;;;;;80.75;16.00;;;18.10;99.90;;;;;;5001471;28;20029;-82
2023/08/16 05:30:32;;;;;;;34.72;15.40;;;17.90;99.90;;;;;;5002688;28;20029;-82
2023/08/16 05:32:58;;;;;;;72.93;18.13;;;17.80;99.90;;;;;;4995449;28;20121;-81
2023/08/16 05:35:24;;;;;;;32.72;16.73;;;17.70;99.90;;;;;;5005023;28;20046;-80
2023/08/16 05:37:54;;;;;;;27.75;21.55;;;17.50;99.90;;;;;;4998869;28;20092;-81
2023/08/16 05:40:20;;;;;;;26.30;19.65;;;17.50;99.90;;;;;;5002065;28;20120;-79
2023/08/16 05:42:45;;;;;;;24.17;16.55;;;17.60;99.90;;;;;;4995093;28;20504;-77
2023/08/16 05:45:11;;;;;;;23.38;16.85;;;17.80;99.90;;;;;;5017639;28;20050;-81
2023/08/16 05:47:37;;;;;;;22.70;15.68;;;17.90;99.90;;;;;;5017681;28;20041;-79
2023/08/16 05:50:02;;;;;;;20.27;14.60;;;18.10;99.90;;;;;;4998454;28;20057;-81
2023/08/16 05:52:28;;;;;;;19.33;14.43;;;18.20;99.90;;;;;;5005348;28;20041;-78
2023/08/16 05:54:54;;;;;;;21.15;14.98;;;18.30;99.90;;;;;;5003457;28;20038;-79
2023/08/16 05:57:19;;;;;;;20.23;14.73;;;18.40;99.90;;;;;;5015292;28;20049;-81
2023/08/16 05:59:45;;;;;;;19.23;12.60;;;18.50;99.90;;;;;;5012041;28;20030;-79
2023/08/16 06:02:10;;;;;;;17.25;13.25;;;18.50;99.90;;;;;;5013307;28;20096;-78
2023/08/16 06:04:36;;;;;;;15.65;12.57;;;18.50;99.90;;;;;;4998539;28;20056;-80
2023/08/16 06:07:02;;;;;;;16.40;11.18;;;18.60;99.90;;;;;;4990926;28;20110;-80
2023/08/16 06:09:28;;;;;;;18.45;13.27;;;18.50;99.90;;;;;;5019365;28;20060;-79
2023/08/16 06:11:53;;;;;;;17.33;11.15;;;18.40;99.90;;;;;;4984076;28;20030;-79
2023/08/16 06:14:19;;;;;;;13.20;10.88;;;18.60;99.90;;;;;;5000386;28;20537;-80
2023/08/16 06:16:45;;;;;;;13.48;11.60;;;18.60;99.90;;;;;;5000624;28;20113;-80
2023/08/16 06:19:13;;;;;;;18.08;11.20;;;18.60;99.90;;;;;;5001812;28;20085;-79
2023/08/16 06:21:39;;;;;;;17.90;13.38;;;18.70;99.90;;;;;;5001538;28;20021;-80
2023/08/16 06:24:05;;;;;;;18.02;14.10;;;18.90;99.90;;;;;;4990349;28;20041;-80
2023/08/16 06:26:30;;;;;;;19.10;15.82;;;18.90;99.90;;;;;;4987901;28;20044;-79
2023/08/16 06:28:58;;;;;;;25.00;18.00;;;19.10;99.90;;;;;;5016259;28;20092;-79
2023/08/16 06:31:23;;;;;;;27.85;18.83;;;19.00;99.90;;;;;;5002309;28;20034;-78
2023/08/16 06:33:49;;;;;;;25.35;17.25;;;19.10;99.90;;;;;;5004314;28;20037;-78
2023/08/16 06:36:14;;;;;;;24.27;16.45;;;19.30;99.90;;;;;;5000058;28;20113;-79
2023/08/16 06:38:40;;;;;;;21.60;16.67;;;19.60;99.90;;;;;;4988914;28;20061;-80
2023/08/16 06:41:05;;;;;;;23.58;16.40;;;19.60;99.90;;;;;;4984823;28;20508;-78
2023/08/16 06:43:33;;;;;;;20.40;14.55;;;19.70;99.90;;;;;;4984675;28;20069;-79
2023/08/16 06:45:59;;;;;;;19.23;15.02;;;19.90;99.90;;;;;;4999754;28;20417;-80
2023/08/16 06:48:24;;;;;;;14.57;12.77;;;20.10;99.90;;;;;;5011805;28;20037;-79
2023/08/16 06:50:50;;;;;;;20.98;13.63;;;20.20;99.90;;;;;;4990182;28;20674;-79
2023/08/16 06:53:16;;;;;;;16.85;13.30;;;20.40;99.90;;;;;;4988773;28;20461;-78
2023/08/16 06:55:44;;;;;;;17.08;13.65;;;20.50;99.90;;;;;;5018028;28;20493;-79
2023/08/16 06:58:10;;;;;;;13.10;11.38;;;20.60;99.90;;;;;;5005802;28;20378;-79
2023/08/16 07:00:36;;;;;;;15.57;13.55;;;20.60;99.90;;;;;;4998121;28;20036;-79
2023/08/16 07:03:02;;;;;;;18.60;14.40;;;20.80;99.90;;;;;;4999377;28;20116;-79
2023/08/16 07:05:28;;;;;;;16.98;13.73;;;21.00;99.90;;;;;;4981715;28;20044;-79
2023/08/16 07:07:53;;;;;;;16.63;13.10;;;21.10;99.90;;;;;;5013432;28;20402;-79
2023/08/16 07:10:19;;;;;;;13.38;11.98;;;21.20;99.90;;;;;;4997571;28;20130;-78
2023/08/16 07:12:45;;;;;;;16.42;12.60;;;21.30;99.90;;;;;;5001115;28;20037;-79
2023/08/16 07:15:11;;;;;;;15.52;11.57;;;21.40;99.90;;;;;;5002773;28;20081;-79
2023/08/16 07:17:37;;;;;;;15.68;12.48;;;21.40;99.90;;;;;;4989453;28;20037;-79
2023/08/16 07:20:07;;;;;;;15.82;11.43;;;21.50;99.90;;;;;;4987894;28;20489;-79
2023/08/16 07:22:32;;;;;;;15.25;11.63;;;21.50;99.90;;;;;;5001421;28;20029;-78
2023/08/16 07:24:58;;;;;;;16.13;11.85;;;21.60;99.90;;;;;;5002119;28;20056;-78
2023/08/16 07:27:24;;;;;;;17.45;12.25;;;21.60;99.90;;;;;;5017583;28;20831;-78
2023/08/16 07:29:49;;;;;;;14.32;11.85;;;21.70;99.90;;;;;;4998725;28;20084;-79
2023/08/16 07:32:15;;;;;;;20.88;13.65;;;21.80;99.90;;;;;;4985415;28;20025;-79
2023/08/16 07:34:42;;;;;;;12.95;10.23;;;21.90;99.90;;;;;;5001592;28;20030;-79
2023/08/16 07:37:08;;;;;;;11.82;10.57;;;22.00;99.90;;;;;;4981355;28;20080;-78
2023/08/16 07:39:35;;;;;;;12.50;9.57;;;22.10;99.90;;;;;;4998566;28;20065;-79
2023/08/16 07:42:00;;;;;;;20.00;10.85;;;22.20;99.90;;;;;;4984504;28;20036;-78
2023/08/16 07:44:26;;;;;;;13.23;10.55;;;22.30;99.90;;;;;;4981328;28;20385;-79
2023/08/16 07:46:52;;;;;;;10.43;9.25;;;22.40;99.90;;;;;;5006302;28;20037;-79
2023/08/16 07:49:17;;;;;;;11.82;10.07;;;22.40;99.90;;;;;;5015906;28;20489;-80
2023/08/16 07:51:43;;;;;;;12.45;9.60;;;22.50;99.90;;;;;;5001708;28;20061;-79
2023/08/16 07:54:08;;;;;;;13.85;10.23;;;22.60;99.90;;;;;;5014146;28;20075;-79
2023/08/16 07:56:34;;;;;;;13.27;10.07;;;22.80;99.90;;;;;;4997244;28;20074;-79
2023/08/16 07:59:00;;;;;;;10.77;9.15;;;22.90;99.90;;;;;;4982098;28;20427;-79
2023/08/16 08:01:26;;;;;;;14.30;11.10;;;22.90;99.90;;;;;;5015937;28;20034;-79
2023/08/16 08:03:52;;;;;;;9.60;8.70;;;23.00;99.90;;;;;;5000057;28;20034;-80
2023/08/16 08:06:18;;;;;;;10.93;7.53;;;23.10;99.90;;;;;;5014565;28;20121;-79
2023/08/16 08:08:43;;;;;;;8.10;7.15;;;23.10;99.90;;;;;;4987298;28;20079;-80
2023/08/16 08:11:09;;;;;;;9.75;7.20;;;23.20;99.90;;;;;;4998888;28;20046;-80
2023/08/16 08:13:36;;;;;;;8.05;6.70;;;23.30;99.90;;;;;;5014156;28;20116;-80
2023/08/16 08:16:02;;;;;;;8.68;7.13;;;23.40;99.90;;;;;;5013268;28;20026;-79
2023/08/16 08:18:30;;;;;;;7.75;6.95;;;23.50;99.90;;;;;;4985615;28;20501;-79
2023/08/16 08:20:55;;;;;;;7.03;6.25;;;23.50;99.90;;;;;;4999863;28;20109;-80
2023/08/16 08:23:21;;;;;;;6.57;5.80;;;23.50;99.90;;;;;;4997566;28;20056;-79
2023/08/16 08:25:47;;;;;;;7.72;6.93;;;23.60;99.90;;;;;;5014760;28;20045;-79
2023/08/16 08:28:13;;;;;;;8.70;7.85;;;23.60;99.90;;;;;;4994358;28;20034;-79
2023/08/16 08:30:41;;;;;;;9.40;6.63;;;23.60;99.90;;;;;;4996022;28;20120;-80
2023/08/16 08:33:07;;;;;;;11.05;6.18;;;23.70;99.90;;;;;;5022741;28;20038;-79
2023/08/16 08:35:33;;;;;;;9.52;7.03;;;23.90;99.90;;;;;;5022004;28;21977;-80
2023/08/16 08:37:59;;;;;;;9.00;6.57;;;24.20;99.90;;;;;;5019497;28;20040;-80
2023/08/16 08:40:24;;;;;;;10.27;6.35;;;24.40;99.90;;;;;;5004939;28;20390;-80
2023/08/16 08:42:50;;;;;;;8.27;6.15;;;24.60;99.90;;;;;;4989099;28;20040;-80
2023/08/16 08:45:15;;;;;;;9.40;7.00;;;24.70;99.90;;;;;;5001512;28;20033;-81
2023/08/16 08:47:43;;;;;;;8.38;6.10;;;24.90;99.90;;;;;;5006853;28;20041;-79
2023/08/16 08:50:09;;;;;;;13.90;7.47;;;25.10;99.90;;;;;;5020635;28;20071;-81
2023/08/16 08:52:34;;;;;;;13.20;8.20;;;25.30;99.90;;;;;;5016893;28;20480;-80
2023/08/16 08:55:01;;;;;;;12.27;8.43;;;25.50;99.90;;;;;;4991223;28;20049;-79
2023/08/16 08:57:28;;;;;;;11.82;8.80;;;25.60;99.90;;;;;;5021209;28;20646;-79
2023/08/16 08:59:55;;;;;;;11.82;8.23;;;25.60;99.90;;;;;;5015735;28;20489;-78
2023/08/16 09:02:21;;;;;;;12.88;7.45;;;25.70;99.90;;;;;;5002582;28;20117;-80
2023/08/16 09:04:47;;;;;;;12.18;8.55;;;25.90;99.90;;;;;;5014131;28;20474;-79
2023/08/16 09:07:13;;;;;;;11.65;7.50;;;26.00;99.90;;;;;;4984234;28;20517;-79
2023/08/16 09:09:39;;;;;;;10.82;7.55;;;26.20;99.90;;;;;;5018194;28;20112;-79
2023/08/16 09:12:05;;;;;;;12.63;7.82;;;26.30;99.90;;;;;;4999659;28;20065;-79
2023/08/16 09:14:32;;;;;;;10.48;6.88;;;26.30;99.90;;;;;;5015314;28;20523;-79
2023/08/16 09:16:57;;;;;;;10.90;6.25;;;26.30;99.90;;;;;;5003299;28;20025;-80
2023/08/16 09:19:23;;;;;;;11.07;7.40;;;26.20;99.90;;;;;;5018985;28;20052;-78
2023/08/16 09:21:50;;;;;;;7.95;6.28;;;26.30;99.90;;;;;;5016760;28;20497;-78
2023/08/16 09:24:16;;;;;;;8.30;6.22;;;26.30;99.90;;;;;;5016247;28;20042;-77
2023/08/16 09:26:42;;;;;;;9.10;5.93;;;26.40;99.90;;;;;;4987961;28;20041;-79
2023/08/16 09:29:08;;;;;;;14.77;7.00;;;26.50;99.90;;;;;;4981642;28;20030;-78
2023/08/16 09:31:41;;;;;;;11.13;6.25;;;26.70;99.90;;;;;;5016102;28;20065;-77
2023/08/16 09:34:06;;;;;;;16.48;7.22;;;26.70;99.90;;;;;;4985717;28;20060;-78
2023/08/16 09:36:34;;;;;;;13.52;6.85;;;26.80;99.90;;;;;;4996524;28;20421;-78
2023/08/16 09:39:02;;;;;;;14.30;7.20;;;26.80;99.90;;;;;;4989303;28;20108;-79
2023/08/16 09:41:28;;;;;;;18.75;12.38;;;26.90;99.90;;;;;;5000640;28;20042;-79
2023/08/16 09:44:05;;;;;;;20.95;12.60;;;27.10;99.90;;;;;;5014280;28;20064;-79
2023/08/16 09:46:31;;;;;;;16.05;11.30;;;27.00;99.90;;;;;;5003330;28;20044;-79
2023/08/16 09:49:06;;;;;;;20.60;12.68;;;27.00;99.90;;;;;;4990548;28;20029;-79
2023/08/16 09:51:35;;;;;;;20.30;11.52;;;27.10;99.90;;;;;;5000746;28;20048;-78
2023/08/16 09:54:03;;;;;;;18.65;14.27;;;26.90;99.90;;;;;;4997073;28;20096;-78
2023/08/16 09:56:31;;;;;;;21.55;13.13;;;26.90;99.90;;;;;;4989338;28;20048;-78
2023/08/16 09:58:59;;;;;;;19.67;13.25;;;26.90;99.90;;;;;;4996129;28;20393;-78
2023/08/16 10:01:24;;;;;;;18.52;13.80;;;26.90;99.90;;;;;;5002255;28;20048;-78
2023/08/16 10:03:55;;;;;;;18.05;11.52;;;26.80;99.90;;;;;;4996856;28;20046;-78
2023/08/16 10:06:23;;;;;;;17.83;11.93;;;26.80;99.90;;;;;;5002569;28;20500;-78
2023/08/16 10:08:49;;;;;;;14.45;11.05;;;26.80;99.90;;;;;;4990096;28;20037;-78
2023/08/16 10:11:16;;;;;;;14.48;10.82;;;26.90;99.90;;;;;;4998217;28;20077;-77
2023/08/16 10:13:42;;;;;;;19.27;11.98;;;26.80;99.90;;;;;;4989059;28;20053;-77
2023/08/16 10:16:11;;;;;;;14.45;12.05;;;26.90;99.90;;;;;;5018235;28;20037;-79
2023/08/16 10:18:38;;;;;;;13.52;9.73;;;26.90;99.90;;;;;;5013093;28;20505;-79
2023/08/16 10:21:04;;;;;;;14.05;10.80;;;27.00;99.90;;;;;;4987874;28;20033;-79
2023/08/16 10:23:30;;;;;;;13.70;10.05;;;26.90;99.90;;;;;;5001534;28;20485;-79
2023/08/16 10:25:56;;;;;;;19.60;12.60;;;26.90;99.90;;;;;;5001448;28;20048;-80
2023/08/16 10:28:22;;;;;;;16.55;12.80;;;26.90;99.90;;;;;;4987128;28;20040;-80
2023/08/16 10:30:50;;;;;;;15.00;12.30;;;26.90;99.90;;;;;;4982970;28;20033;-80
2023/08/16 10:33:21;;;;;;;16.33;11.70;;;26.90;99.90;;;;;;5014221;28;20048;-79
2023/08/16 10:35:48;;;;;;;17.35;13.55;;;26.80;99.90;;;;;;4989026;28;20034;-79
2023/08/16 10:38:16;;;;;;;17.10;12.15;;;26.80;99.90;;;;;;5000597;28;20109;-80
2023/08/16 10:40:42;;;;;;;15.35;9.40;;;26.80;99.90;;;;;;5002149;28;20037;-79
2023/08/16 10:43:08;;;;;;;15.45;13.05;;;26.80;99.90;;;;;;5000806;28;20045;-79
2023/08/16 10:45:34;;;;;;;14.00;11.73;;;26.80;99.90;;;;;;4999390;28;20042;-80
2023/08/16 10:48:33;;;;;;;18.05;13.23;;;26.80;99.90;;;;;;4988470;28;20464;-79
2023/08/16 10:51:01;;;;;;;14.65;12.75;;;26.80;99.90;;;;;;5009557;28;20034;-80
2023/08/16 10:53:28;;;;;;;16.70;14.90;;;26.70;99.90;;;;;;5014965;28;20046;-79
2023/08/16 10:55:55;;;;;;;20.92;13.85;;;26.60;99.90;;;;;;4981997;28;20599;-81
2023/08/16 10:58:23;;;;;;;17.45;13.70;;;26.60;99.90;;;;;;5012675;28;20037;-78
2023/08/16 11:01:00;;;;;;;13.35;10.38;;;26.50;99.90;;;;;;4998154;28;20061;-78
2023/08/16 11:03:37;;;;;;;18.85;14.35;;;26.40;99.90;;;;;;5000300;28;20056;-80
2023/08/16 11:06:12;;;;;;;16.23;14.48;;;26.40;99.90;;;;;;5001100;28;20041;-80
2023/08/16 11:08:40;;;;;;;22.73;16.45;;;26.30;99.90;;;;;;4965393;28;20545;-80
2023/08/16 11:11:06;;;;;;;25.10;14.80;;;26.30;99.90;;;;;;4995857;28;20680;-82
2023/08/16 11:13:31;;;;;;;19.15;15.80;;;26.20;99.90;;;;;;4970806;28;20117;-80
2023/08/16 11:15:57;;;;;;;19.02;14.50;;;26.20;99.90;;;;;;4996921;28;20037;-79
2023/08/16 11:18:32;;;;;;;18.67;15.07;;;26.00;99.90;;;;;;4983653;28;20112;-79
2023/08/16 11:21:01;;;;;;;17.48;13.00;;;26.10;99.90;;;;;;5015611;28;20037;-79
2023/08/16 11:23:32;;;;;;;21.00;13.75;;;26.10;99.90;;;;;;4955371;28;20112;-80
2023/08/16 11:26:07;;;;;;;18.70;12.98;;;26.10;99.90;;;;;;4975028;28;20061;-80
2023/08/16 11:28:34;;;;;;;16.63;12.77;;;26.10;99.90;;;;;;4988131;28;20041;-80
2023/08/16 11:31:03;;;;;;;20.52;13.23;;;26.20;99.90;;;;;;5012964;28;20039;-80
2023/08/16 11:33:33;;;;;;;16.80;12.25;;;26.30;99.90;;;;;;4996453;28;20511;-80
2023/08/16 11:36:04;;;;;;;18.35;14.07;;;26.30;99.90;;;;;;4985393;28;20148;-80
2023/08/16 11:38:30;;;;;;;21.45;15.55;;;26.30;99.90;;;;;;4983113;28;20033;-80
2023/08/16 11:40:55;;;;;;;20.58;12.35;;;26.30;99.90;;;;;;4987938;28;20536;-80
2023/08/16 11:43:31;;;;;;;18.90;14.00;;;26.40;99.90;;;;;;5001126;28;20060;-80
2023/08/16 11:45:57;;;;;;;19.63;12.25;;;26.60;99.90;;;;;;4984493;28;20052;-80
2023/08/16 11:48:25;;;;;;;24.52;14.13;;;26.90;99.90;;;;;;4998448;28;20042;-81
2023/08/16 11:50:51;;;;;;;20.02;15.18;;;27.00;99.90;;;;;;4999694;28;20477;-80
2023/08/16 11:53:17;;;;;;;23.35;15.48;;;27.10;99.90;;;;;;4999644;28;20034;-81
2023/08/16 11:55:42;;;;;;;22.80;13.75;;;27.10;99.90;;;;;;5000487;28;20048;-81
2023/08/16 11:58:11;;;;;;;17.50;13.55;;;27.10;99.90;;;;;;4984656;28;20037;-81
2023/08/16 12:00:38;;;;;;;20.55;14.85;;;27.10;99.90;;;;;;4999200;28;20421;-80
2023/08/16 12:03:04;;;;;;;17.88;13.20;;;27.10;99.90;;;;;;5012521;28;20071;-80
2023/08/16 12:05:36;;;;;;;19.40;13.68;;;27.20;99.90;;;;;;5014299;28;20033;-79
2023/08/16 12:08:05;;;;;;;19.27;13.38;;;27.30;99.90;;;;;;4983650;28;20069;-80
2023/08/16 12:10:33;;;;;;;19.20;13.45;;;27.30;99.90;;;;;;5003568;28;20108;-79
2023/08/16 12:12:59;;;;;;;16.63;10.00;;;27.50;99.90;;;;;;4991671;28;20076;-80
2023/08/16 12:15:26;;;;;;;17.60;11.60;;;27.50;99.90;;;;;;4999601;28;20117;-79
2023/08/16 12:17:52;;;;;;;18.23;13.00;;;27.70;99.90;;;;;;5017594;28;20053;-80
2023/08/16 12:20:18;;;;;;;19.45;13.05;;;27.80;99.90;;;;;;4986261;28;20049;-80
2023/08/16 12:22:45;;;;;;;16.80;11.80;;;27.80;99.90;;;;;;5003408;28;20511;-80
2023/08/16 12:25:10;;;;;;;18.95;11.77;;;28.00;99.90;;;;;;4999250;28;20069;-80
2023/08/16 12:27:36;;;;;;;16.92;12.30;;;28.20;99.90;;;;;;5015693;28;20457;-80
2023/08/16 12:30:04;;;;;;;16.85;11.20;;;28.40;99.90;;;;;;5001405;28;20462;-81